Time;durP1;ratioP1;P1;durP2;ratioP2;P2;SDS_P1;SDS_P2;PMS_P1;PMS_P2;Temp;Humidity;BMP_temperature;BMP_pressure;BME280_temperature;BME280_humidity;BME280_pressure;Samples;Min_cycle;Max_cycle;Signal;HPM_P1;HPM_P2
2022/06/12 00:06:50;;;;;;;2.75;0.43;;;15.10;99.90;;;;;;20711882;28;20048;-41
2022/06/12 00:16:52;;;;;;;1.70;0.82;;;15.00;99.90;;;;;;20705169;28;20053;-41
2022/06/12 00:26:55;;;;;;;2.13;1.48;;;14.80;99.90;;;;;;20720152;28;20092;-41
2022/06/12 00:36:57;;;;;;;1.60;0.30;;;14.60;99.90;;;;;;20729324;28;20503;-41
2022/06/12 00:47:02;;;;;;;4.45;1.45;;;14.60;99.90;;;;;;20734142;28;20049;-41
2022/06/12 00:57:05;;;;;;;0.90;0.35;;;14.50;99.90;;;;;;20723516;28;20041;-41
2022/06/12 01:07:12;;;;;;;2.08;0.80;;;14.40;99.90;;;;;;20735235;28;20752;-41
2022/06/12 01:17:15;;;;;;;2.25;0.57;;;14.50;99.90;;;;;;20727391;28;20936;-41
2022/06/12 01:27:44;;;;;;;1.45;0.50;;;14.40;99.90;;;;;;20717228;28;20196;-41
2022/06/12 01:37:52;;;;;;;1.25;0.60;;;14.40;99.90;;;;;;20726058;28;20501;-41
2022/06/12 01:48:03;;;;;;;1.70;0.65;;;14.30;99.90;;;;;;20714201;28;20053;-41
2022/06/12 01:58:22;;;;;;;2.10;0.82;;;14.20;99.90;;;;;;20720368;28;20056;-41
2022/06/12 02:08:31;;;;;;;1.58;1.02;;;14.20;99.90;;;;;;20715088;28;20046;-41
2022/06/12 02:18:43;;;;;;;1.90;0.70;;;14.20;99.90;;;;;;20664417;28;1325361;-41
2022/06/12 02:28:52;;;;;;;2.22;0.60;;;14.20;99.90;;;;;;20701741;28;20412;-41
2022/06/12 02:39:16;;;;;;;2.05;0.70;;;14.10;99.90;;;;;;21100200;23;20058;-40
2022/06/12 02:49:20;;;;;;;2.42;0.88;;;14.10;99.90;;;;;;20588228;28;20050;-40
2022/06/12 02:59:25;;;;;;;2.35;0.80;;;14.10;99.90;;;;;;20641170;28;20449;-41
2022/06/12 03:09:26;;;;;;;3.25;1.35;;;14.10;99.90;;;;;;20668736;28;20503;-41
2022/06/12 03:19:33;;;;;;;2.38;0.85;;;14.20;99.90;;;;;;20643608;28;20038;-41
2022/06/12 03:29:49;;;;;;;4.63;1.17;;;14.10;99.90;;;;;;20649128;28;20180;-41
2022/06/12 03:40:15;;;;;;;1.67;0.73;;;14.00;99.90;;;;;;20712711;28;20056;-41
2022/06/12 03:50:25;;;;;;;2.00;1.00;;;14.00;99.90;;;;;;20732253;28;22698;-41
2022/06/12 04:00:43;;;;;;;1.73;0.70;;;14.00;99.90;;;;;;20722104;28;20080;-41
2022/06/12 04:10:44;;;;;;;5.90;1.30;;;14.00;99.90;;;;;;20723367;28;20061;-41
2022/06/12 04:21:07;;;;;;;2.65;0.85;;;14.00;99.90;;;;;;20736390;28;20030;-41
2022/06/12 04:31:19;;;;;;;6.50;1.17;;;14.00;99.90;;;;;;20724276;28;20057;-41
2022/06/12 04:41:23;;;;;;;2.85;1.10;;;14.10;99.90;;;;;;20719059;28;20045;-41
2022/06/12 04:51:26;;;;;;;3.33;0.90;;;14.20;99.90;;;;;;20722790;28;20129;-41
2022/06/12 05:01:27;;;;;;;3.53;1.20;;;14.30;99.90;;;;;;20713255;28;20042;-41
2022/06/12 05:11:29;;;;;;;3.72;0.90;;;14.50;99.90;;;;;;20732356;28;20040;-41
2022/06/12 05:21:31;;;;;;;6.18;1.05;;;14.70;99.90;;;;;;20731637;28;20488;-41
2022/06/12 05:31:32;;;;;;;3.88;1.67;;;14.80;99.90;;;;;;20733617;28;20428;-41
2022/06/12 05:41:34;;;;;;;7.45;1.08;;;15.00;99.90;;;;;;20732935;28;20532;-41
2022/06/12 05:51:35;;;;;;;3.88;1.50;;;15.20;99.90;;;;;;20743001;28;20050;-41
2022/06/12 06:01:39;;;;;;;9.90;1.65;;;15.50;99.90;;;;;;20699323;28;20046;-41
2022/06/12 06:11:40;;;;;;;5.47;1.25;;;15.80;99.90;;;;;;20725784;28;20422;-41
2022/06/12 06:21:42;;;;;;;2.55;0.77;;;16.20;99.90;;;;;;20723849;28;20041;-41
2022/06/12 06:31:43;;;;;;;4.55;1.05;;;16.30;99.90;;;;;;20731148;28;20049;-41
2022/06/12 06:41:44;;;;;;;2.42;1.02;;;16.50;99.90;;;;;;20727374;28;20046;-41
2022/06/12 06:51:45;;;;;;;1.27;0.52;;;16.80;99.90;;;;;;20657999;28;20580;-42
2022/06/12 07:01:47;;;;;;;1.45;0.65;;;17.10;99.90;;;;;;20722033;28;20045;-41
2022/06/12 07:11:48;;;;;;;5.75;1.25;;;17.20;99.90;;;;;;20714507;28;20060;-41
2022/06/12 07:21:49;;;;;;;4.00;1.08;;;17.50;99.90;;;;;;20686890;28;20365;-39
2022/06/12 07:31:50;;;;;;;1.20;0.47;;;17.50;99.90;;;;;;20681960;28;20064;-39
2022/06/12 07:41:52;;;;;;;2.72;1.00;;;17.70;99.90;;;;;;20754843;28;20064;-39
2022/06/12 07:51:55;;;;;;;4.03;0.80;;;17.80;99.90;;;;;;20725937;28;20496;-39
2022/06/12 08:01:56;;;;;;;1.15;0.50;;;17.90;99.90;;;;;;20762732;28;20607;-38
2022/06/12 08:11:57;;;;;;;2.08;1.00;;;18.00;99.90;;;;;;20738183;28;20040;-39
2022/06/12 08:22:02;;;;;;;1.90;0.70;;;18.30;99.90;;;;;;20742288;28;20068;-39
2022/06/12 08:32:12;;;;;;;2.10;1.10;;;18.60;99.90;;;;;;20723492;28;20068;-39
2022/06/12 08:42:24;;;;;;;1.83;0.57;;;18.70;99.90;;;;;;20777859;28;20358;-39
2022/06/12 08:52:47;;;;;;;2.60;1.58;;;19.00;99.90;;;;;;20767603;28;20045;-39
2022/06/12 09:02:48;;;;;;;1.23;0.47;;;19.10;99.90;;;;;;20786512;28;20049;-39
2022/06/12 09:13:08;;;;;;;3.58;0.68;;;19.20;99.90;;;;;;20797835;28;20496;-39
2022/06/12 09:23:32;;;;;;;2.00;0.85;;;19.50;99.90;;;;;;20800312;28;20401;-39
2022/06/12 09:33:44;;;;;;;1.48;0.73;;;19.60;99.90;;;;;;20809702;28;21455;-39
2022/06/12 09:44:17;;;;;;;1.25;0.47;;;19.80;99.90;;;;;;20807657;28;20055;-40
2022/06/12 09:54:20;;;;;;;2.10;0.60;;;19.90;99.90;;;;;;20810879;28;20838;-39
2022/06/12 10:04:43;;;;;;;1.05;0.40;;;20.00;99.90;;;;;;20810251;28;20133;-39
2022/06/12 10:14:56;;;;;;;2.47;0.70;;;20.00;99.90;;;;;;20798734;28;20515;-40
2022/06/12 10:24:59;;;;;;;2.60;0.55;;;20.00;99.90;;;;;;20782367;28;20038;-39
2022/06/12 10:35:15;;;;;;;2.53;0.65;;;20.20;99.90;;;;;;20763600;28;20060;-40
2022/06/12 10:45:37;;;;;;;1.25;0.73;;;20.60;99.90;;;;;;20796532;28;21543;-39
2022/06/12 10:55:45;;;;;;;5.38;0.52;;;20.70;99.90;;;;;;20795710;28;21559;-39
2022/06/12 11:06:11;;;;;;;1.63;0.40;;;21.10;99.90;;;;;;20801285;28;20434;-39
2022/06/12 11:16:22;;;;;;;0.73;0.30;;;21.30;99.90;;;;;;20799828;28;20045;-39
2022/06/12 11:26:43;;;;;;;0.93;0.30;;;21.30;99.90;;;;;;20804065;28;20111;-39
2022/06/12 11:36:44;;;;;;;1.13;0.52;;;21.10;99.90;;;;;;20792269;28;20506;-39
2022/06/12 11:46:58;;;;;;;2.33;0.60;;;21.10;99.90;;;;;;20798647;28;20586;-40
2022/06/12 11:57:02;;;;;;;1.38;0.60;;;21.20;99.90;;;;;;20798918;28;20504;-39
2022/06/12 12:07:21;;;;;;;1.20;0.35;;;21.50;99.90;;;;;;20770404;28;20412;-39
2022/06/12 12:17:27;;;;;;;0.88;0.30;;;22.00;99.90;;;;;;20778258;28;20033;-39
2022/06/12 12:27:35;;;;;;;1.75;0.52;;;22.10;99.90;;;;;;20792459;28;20061;-39
2022/06/12 12:48:07;;;;;;;2.70;0.93;;;22.40;98.60;;;;;;20709232;28;22182;-39
2022/06/12 12:58:21;;;;;;;0.88;0.40;;;22.30;99.90;;;;;;20760009;28;20057;-39
2022/06/12 13:08:34;;;;;;;1.50;0.40;;;22.00;99.90;;;;;;20791034;28;20071;-39
2022/06/12 13:18:56;;;;;;;3.83;0.50;;;22.10;99.90;;;;;;20789651;28;20497;-39
2022/06/12 13:29:00;;;;;;;1.52;0.80;;;22.20;99.90;;;;;;20811151;28;20252;-39
2022/06/12 13:39:06;;;;;;;1.20;0.47;;;22.10;99.90;;;;;;20803329;28;20055;-39
2022/06/12 13:49:23;;;;;;;4.73;1.47;;;22.40;99.90;;;;;;20794408;28;20040;-39
2022/06/12 13:59:32;;;;;;;1.85;0.50;;;22.30;99.90;;;;;;20821840;28;21122;-39
2022/06/12 14:09:35;;;;;;;2.60;0.47;;;21.90;99.90;;;;;;20833566;28;20060;-39
2022/06/12 14:19:36;;;;;;;5.22;0.80;;;21.60;99.90;;;;;;20804958;28;20466;-39
2022/06/12 14:29:37;;;;;;;2.30;0.50;;;21.60;99.90;;;;;;20808802;28;20059;-39
2022/06/12 14:39:39;;;;;;;2.13;0.70;;;21.30;99.90;;;;;;20812553;28;20053;-39
2022/06/12 14:49:40;;;;;;;1.77;0.47;;;20.90;99.90;;;;;;20822337;28;20041;-39
2022/06/12 14:59:43;;;;;;;1.92;0.85;;;20.90;99.90;;;;;;20829107;28;20049;-40
2022/06/12 15:09:45;;;;;;;1.48;0.73;;;20.80;99.90;;;;;;20838009;28;20045;-40
2022/06/12 15:19:47;;;;;;;1.77;0.60;;;20.80;99.90;;;;;;20813827;28;20544;-40
2022/06/12 15:29:48;;;;;;;4.72;0.90;;;21.00;99.90;;;;;;20803801;28;20045;-39
2022/06/12 15:39:50;;;;;;;4.63;1.38;;;20.90;99.90;;;;;;20804616;28;20957;-39
2022/06/12 15:49:51;;;;;;;2.28;0.80;;;20.90;99.90;;;;;;20794424;28;20484;-39
2022/06/12 15:59:52;;;;;;;1.67;0.60;;;20.60;99.90;;;;;;20793038;28;20041;-40
2022/06/12 16:09:54;;;;;;;3.28;1.58;;;20.50;99.90;;;;;;20799521;28;20045;-40
2022/06/12 16:19:56;;;;;;;1.90;0.82;;;20.40;99.90;;;;;;20790126;28;20033;-40
2022/06/12 16:29:57;;;;;;;1.05;0.40;;;20.20;99.90;;;;;;20788644;28;20059;-40
2022/06/12 16:39:58;;;;;;;1.85;0.70;;;20.00;99.90;;;;;;20798822;28;20059;-40
2022/06/12 16:49:59;;;;;;;4.28;0.70;;;20.00;99.90;;;;;;20798027;28;20408;-40
2022/06/12 17:00:02;;;;;;;1.55;0.80;;;19.90;99.90;;;;;;20791426;28;20509;-40
2022/06/12 17:10:05;;;;;;;3.85;1.10;;;19.70;99.90;;;;;;20744671;28;20083;-40
2022/06/12 17:30:26;;;;;;;2.08;0.68;;;19.40;99.90;;;;;;20792547;28;20052;-40
2022/06/12 17:40:27;;;;;;;1.73;0.82;;;19.20;99.90;;;;;;20798881;28;20080;-40
2022/06/12 17:50:28;;;;;;;1.75;0.73;;;19.10;99.90;;;;;;20801384;28;20400;-39
2022/06/12 18:00:29;;;;;;;2.40;0.65;;;18.80;99.90;;;;;;20799261;28;20048;-39
2022/06/12 18:10:31;;;;;;;2.25;0.70;;;18.70;99.90;;;;;;20765445;28;20516;-40
2022/06/12 18:20:32;;;;;;;1.60;0.82;;;18.60;99.90;;;;;;20766660;28;20271;-39
2022/06/12 18:30:33;;;;;;;2.33;0.90;;;18.50;99.90;;;;;;20752079;28;20049;-40
2022/06/12 18:40:35;;;;;;;1.60;0.60;;;18.30;99.90;;;;;;20788400;28;20072;-39
2022/06/12 18:50:36;;;;;;;3.05;0.70;;;18.30;99.90;;;;;;20771347;28;20052;-39
2022/06/12 19:00:40;;;;;;;4.10;0.90;;;18.00;99.90;;;;;;20788067;28;20045;-39
2022/06/12 19:10:41;;;;;;;4.13;1.15;;;17.90;99.90;;;;;;20792346;28;20041;-39
2022/06/12 19:20:42;;;;;;;6.45;0.80;;;17.70;99.90;;;;;;20798688;28;20511;-40
2022/06/12 19:30:44;;;;;;;2.20;1.02;;;17.50;99.90;;;;;;20793510;28;20421;-39
2022/06/12 19:40:45;;;;;;;2.92;0.88;;;17.30;99.90;;;;;;20774636;28;20059;-39
2022/06/12 19:50:47;;;;;;;4.13;1.67;;;17.20;99.90;;;;;;20783975;28;20048;-39
2022/06/12 20:00:49;;;;;;;7.15;0.90;;;17.10;99.90;;;;;;20787745;28;20045;-39
2022/06/12 20:10:50;;;;;;;3.17;0.88;;;17.00;99.90;;;;;;20812228;28;20057;-39
2022/06/12 20:20:58;;;;;;;2.72;1.02;;;16.90;99.90;;;;;;20801146;28;20042;-39
2022/06/12 20:31:01;;;;;;;2.88;0.82;;;16.70;99.90;;;;;;20797336;28;20061;-39
2022/06/12 20:41:03;;;;;;;10.30;1.52;;;16.40;99.90;;;;;;20801512;28;20041;-39
2022/06/12 20:51:06;;;;;;;10.65;1.27;;;16.30;99.90;;;;;;20768956;28;20508;-40
2022/06/12 21:01:07;;;;;;;2.97;1.05;;;16.00;99.90;;;;;;20767603;28;20049;-39
2022/06/12 21:11:08;;;;;;;1.67;0.80;;;15.80;99.90;;;;;;20759204;28;20053;-41
2022/06/12 21:21:10;;;;;;;3.95;2.05;;;16.00;99.90;;;;;;20791534;28;20438;-41
2022/06/12 21:31:11;;;;;;;2.67;1.10;;;16.10;99.90;;;;;;20822448;28;20060;-41
2022/06/12 21:41:12;;;;;;;2.45;1.40;;;15.80;99.90;;;;;;20803880;28;20057;-41
2022/06/12 21:54:31;;;;;;;2.28;0.73;;;15.60;99.90;;;;;;20798237;28;20044;-41
2022/06/12 22:01:37;;;;;;;2.20;1.23;;;15.50;99.90;;;;;;20801243;28;20036;-41
2022/06/12 22:11:38;;;;;;;3.33;1.85;;;15.50;99.90;;;;;;20796810;28;20330;-41
2022/06/12 22:21:39;;;;;;;1.92;0.85;;;15.40;99.90;;;;;;20773119;28;20486;-41
2022/06/12 22:31:41;;;;;;;4.70;1.50;;;15.40;99.90;;;;;;20795451;28;20052;-41
2022/06/12 22:41:42;;;;;;;8.45;1.45;;;15.10;99.90;;;;;;20758036;28;20037;-41
2022/06/12 22:51:44;;;;;;;4.07;1.33;;;15.10;99.90;;;;;;20725341;28;20401;-41
2022/06/12 23:01:47;;;;;;;2.85;1.10;;;15.10;99.90;;;;;;20797213;28;20033;-41
2022/06/12 23:11:48;;;;;;;4.93;1.58;;;15.00;99.90;;;;;;20782660;28;20531;-41
2022/06/12 23:21:49;;;;;;;3.50;1.00;;;14.90;99.90;;;;;;20738024;28;20401;-41
2022/06/12 23:31:50;;;;;;;2.47;1.17;;;14.80;99.90;;;;;;20712104;28;20700;-41
2022/06/12 23:41:52;;;;;;;3.00;1.00;;;14.70;99.90;;;;;;20758234;28;20415;-41
2022/06/12 23:51:53;;;;;;;7.72;1.70;;;14.70;99.90;;;;;;20788398;28;20048;-41
